Nearby METAR Reports

 

TNCA - Queen Beatrix, Lesser Antilles
Distance from station: 0 0km
Updated: 17/08/2018 22:00
Few Clouds
Few Clouds
 Wind from ENE
Wind: ENE 37 km/h
Temperature: 28°C
Heat Index: 32°C
Dew Point: 24°C
Humidity: 79%
Barometer: 1014 hPa
Clouds: Few Clouds
Visibility: 10 km
Cloud details: Few Clouds 549 m
2018/08/18 02:00 TNCA 180200Z 07020KT 9999 FEW018 28/24 Q1014 NOSIG
SVJC - Paraguana/Josefa, Venezuela
Distance from station: S 83km
Updated: 23/06/2018 06:00
NOT Current

 
2018/06/23 10:00 SVJC 231000Z NI
 
TNCC - Hato Air Curacao, Lesser Antilles
Distance from station: ESE 117km
Updated: 17/08/2018 22:00
Partly Cloudy
Partly Cloudy
 Wind from E
Wind: E 26 km/h
Temperature: 28°C
Heat Index: 32°C
Dew Point: 24°C
Humidity: 79%
Barometer: 1016 hPa
Clouds: Partly Cloudy
Visibility: 10 km
Cloud details: Partly Cloudy 488 m
2018/08/18 02:00 TNCC 180200Z AUTO 09014KT 9999 SCT016 28/24 Q1016 NOSIG
SVCR - Coro/Jose Leonar, Venezuela
Distance from station: SSE 126km
Updated: 17/08/2018 20:00
NOT Current
Few Clouds
Few Clouds
 Wind from varies
Wind: varies 0 km/h
Temperature: 28°C
Heat Index: 30°C
Dew Point: 21°C
Humidity: 66%
Barometer: 1012 hPa
Clouds: Few Clouds
Visibility: 10 km
Cloud details: Few Clouds 396 m
2018/08/18 00:00 SVCR 180000Z /////KT 9999 FEW013 28/21 Q1012
 
TNCB - Bonaire/Flamingo, Lesser Antilles
Distance from station: ESE 191km
Updated: 17/08/2018 19:55
NOT Current
Partly Cloudy
Partly Cloudy
 Wind from E
Wind: E 26 km/h
Temperature: 28°C
Heat Index: 32°C
Dew Point: 24°C
Humidity: 79%
Barometer: 1014 hPa
Clouds: Partly Cloudy
Visibility: 10 km
Cloud details: Partly Cloudy 457 m
2018/08/17 23:55 TNCB 172355Z 08014KT 050V110 9999 SCT015 28/24 Q1014
SVMC - Maracaibo/La Chi, Venezuela
Distance from station: SW 285km
Updated: 15/08/2018 23:00
NOT Current
Partly Cloudy
Partly Cloudy
 Wind from N
Wind: N 2 km/h
Temperature: 27°C
Heat Index: 33°C
Dew Point: 27°C
Humidity: 100%
Barometer: 1014 hPa
Clouds: Partly Cloudy
Visibility: 10 km
Cloud details: Partly Cloudy 518 m
2018/08/16 03:00 SVMC 160300Z 36001KT 9999 SCT017 27/27 Q1014